KLM856 RKSI-EHAM
Flight info
| Callsign | KLM856 |
|---|---|
| Flight time | N/A |
| Altitude | 28000 |
| Route | NOPIK2Y NOPIK Y697 AGAVO/K0817S0660 A591 IKEKA W4 FZ/K0895S0840 W4 HCH W200 DOVIV W55 PAMRU W34 LADIX B339 ASILA A575 UPREK W28 ISBOS/K0915S0920 W28 LAGEB W66 NUKTI B215 KABDO W119 GOBOK A343 IGLOT/K0911S0980 A343 RULAD/K0911F320 M610 ARBOL Z621 ELAHA N147 OTBOR/N0491F320 A480 TIMGA B476 METKA L88 RASAM N199 LUSAL N319 ADEKI/N0484F340 DCT BADIR DCT LAGAS DCT FOQUS DCT SARPI UM10 GOKPA UL746 ODERO DCT LUGEB DCT MOPUG DCT BEGLA DCT DITIS DCT VARIK DCT SODRO DCT KATCE DCT WRB DCT HMM T281 NORKU |
| Aircraft | B77W/H-SDE1E2E3FGHIJ2J3J4J5M1RWXY/LB1D1 |
Departure
| Time | N/A |
|---|---|
| Airport | Incheon International Airport (RKSI) |
Arrival
| Time | 2026-04-27 10:28 |
|---|---|
| Airport | Amsterdam Airport Schiphol (EHAM) |
| Time | Latitude | Longitude | Altitude | Speed | Heading |
|---|---|---|---|---|---|
| 2026-04-27 10:04 | 51.80611 | 7.91705 | 36286 ft | 437 kts | 290° |
| 2026-04-27 10:04 | 51.82845 | 7.82559 | 36285 ft | 438 kts | 290° |
| 2026-04-27 10:05 | 51.85037 | 7.73374 | 36290 ft | 438 kts | 287° |
| 2026-04-27 10:05 | 51.86458 | 7.63829 | 36288 ft | 436 kts | 278° |
| 2026-04-27 10:06 | 51.87395 | 7.54122 | 36292 ft | 437 kts | 278° |
| 2026-04-27 10:06 | 51.88345 | 7.44353 | 35661 ft | 447 kts | 278° |
| 2026-04-27 10:07 | 51.88831 | 7.39377 | 34977 ft | 447 kts | 278° |
| 2026-04-27 10:07 | 51.89317 | 7.34416 | 34158 ft | 446 kts | 278° |
| 2026-04-27 10:07 | 51.89801 | 7.29458 | 33209 ft | 446 kts | 278° |
| 2026-04-27 10:07 | 51.90283 | 7.24499 | 32284 ft | 445 kts | 278° |
| 2026-04-27 10:08 | 51.90763 | 7.19546 | 31337 ft | 446 kts | 278° |
| 2026-04-27 10:08 | 51.91241 | 7.14589 | 30601 ft | 443 kts | 278° |
| 2026-04-27 10:08 | 51.91707 | 7.09746 | 29848 ft | 440 kts | 278° |
| 2026-04-27 10:08 | 51.92172 | 7.04879 | 29133 ft | 435 kts | 278° |
| 2026-04-27 10:09 | 51.92630 | 7.00056 | 28469 ft | 431 kts | 278° |
| 2026-04-27 10:09 | 51.93083 | 6.95283 | 27823 ft | 426 kts | 278° |
| 2026-04-27 10:09 | 51.93529 | 6.90559 | 27174 ft | 423 kts | 278° |
| 2026-04-27 10:09 | 51.93970 | 6.85858 | 26543 ft | 420 kts | 278° |
| 2026-04-27 10:10 | 51.94406 | 6.81200 | 25925 ft | 417 kts | 278° |
| 2026-04-27 10:10 | 51.94836 | 6.76568 | 25299 ft | 414 kts | 278° |
| 2026-04-27 10:10 | 51.95262 | 6.71961 | 24688 ft | 412 kts | 278° |
| 2026-04-27 10:10 | 51.95684 | 6.67389 | 24097 ft | 410 kts | 278° |
| 2026-04-27 10:11 | 51.96103 | 6.62818 | 23391 ft | 409 kts | 278° |
| 2026-04-27 10:11 | 51.96518 | 6.58275 | 22740 ft | 406 kts | 278° |
| 2026-04-27 10:11 | 51.96929 | 6.53759 | 22128 ft | 403 kts | 278° |
| 2026-04-27 10:11 | 51.97336 | 6.49281 | 21528 ft | 400 kts | 278° |
| 2026-04-27 10:12 | 51.97738 | 6.44828 | 20933 ft | 398 kts | 278° |
| 2026-04-27 10:12 | 51.98135 | 6.40411 | 20362 ft | 395 kts | 278° |
| 2026-04-27 10:12 | 51.98526 | 6.36020 | 19789 ft | 392 kts | 278° |
| 2026-04-27 10:12 | 51.98915 | 6.31644 | 19217 ft | 391 kts | 278° |
| 2026-04-27 10:13 | 51.99301 | 6.27297 | 18636 ft | 390 kts | 278° |
| 2026-04-27 10:13 | 51.99685 | 6.22947 | 18005 ft | 388 kts | 278° |
| 2026-04-27 10:13 | 52.00066 | 6.18628 | 17396 ft | 386 kts | 278° |
| 2026-04-27 10:13 | 52.00442 | 6.14321 | 16819 ft | 384 kts | 278° |
| 2026-04-27 10:14 | 52.00814 | 6.10049 | 16252 ft | 382 kts | 278° |
| 2026-04-27 10:14 | 52.01183 | 6.05798 | 15685 ft | 380 kts | 278° |
| 2026-04-27 10:14 | 52.01549 | 6.01559 | 15146 ft | 378 kts | 278° |
| 2026-04-27 10:14 | 52.01913 | 5.97337 | 14585 ft | 377 kts | 278° |
| 2026-04-27 10:15 | 52.02272 | 5.93138 | 14036 ft | 376 kts | 278° |
| 2026-04-27 10:15 | 52.02629 | 5.88934 | 13423 ft | 375 kts | 278° |
| 2026-04-27 10:15 | 52.02984 | 5.84755 | 12846 ft | 373 kts | 278° |
| 2026-04-27 10:15 | 52.03332 | 5.80646 | 12292 ft | 371 kts | 278° |
| 2026-04-27 10:16 | 52.03682 | 5.76502 | 11745 ft | 369 kts | 278° |
| 2026-04-27 10:16 | 52.04027 | 5.72378 | 11288 ft | 367 kts | 278° |
| 2026-04-27 10:16 | 52.04363 | 5.68342 | 11126 ft | 355 kts | 278° |
| 2026-04-27 10:16 | 52.04688 | 5.64433 | 10982 ft | 344 kts | 278° |
| 2026-04-27 10:17 | 52.05001 | 5.60634 | 10830 ft | 335 kts | 278° |
| 2026-04-27 10:17 | 52.05305 | 5.56936 | 10695 ft | 326 kts | 278° |
| 2026-04-27 10:17 | 52.05605 | 5.53335 | 10553 ft | 318 kts | 278° |
| 2026-04-27 10:17 | 52.05890 | 5.49821 | 10431 ft | 309 kts | 278° |
| 2026-04-27 10:18 | 52.06169 | 5.46404 | 10308 ft | 301 kts | 278° |
| 2026-04-27 10:18 | 52.06441 | 5.43048 | 10074 ft | 297 kts | 278° |
| 2026-04-27 10:18 | 52.06709 | 5.39746 | 9902 ft | 291 kts | 278° |
| 2026-04-27 10:18 | 52.06966 | 5.36539 | 9787 ft | 282 kts | 278° |
| 2026-04-27 10:19 | 52.07218 | 5.33428 | 9651 ft | 274 kts | 278° |
| 2026-04-27 10:19 | 52.07454 | 5.30478 | 9400 ft | 270 kts | 278° |
| 2026-04-27 10:19 | 52.07695 | 5.27465 | 9172 ft | 267 kts | 278° |
| 2026-04-27 10:19 | 52.07935 | 5.24491 | 8865 ft | 265 kts | 278° |
| 2026-04-27 10:20 | 52.08170 | 5.21514 | 8542 ft | 265 kts | 278° |
| 2026-04-27 10:20 | 52.08402 | 5.18544 | 8232 ft | 265 kts | 278° |
| 2026-04-27 10:20 | 52.08635 | 5.15586 | 8012 ft | 263 kts | 278° |
| 2026-04-27 10:20 | 52.08867 | 5.12647 | 7695 ft | 258 kts | 278° |
| 2026-04-27 10:21 | 52.09092 | 5.09784 | 7113 ft | 253 kts | 278° |
| 2026-04-27 10:21 | 52.09311 | 5.06969 | 6580 ft | 249 kts | 278° |
| 2026-04-27 10:21 | 52.09524 | 5.04194 | 5968 ft | 246 kts | 278° |
| 2026-04-27 10:21 | 52.09737 | 5.01461 | 5525 ft | 239 kts | 278° |
| 2026-04-27 10:22 | 52.09954 | 4.98724 | 5254 ft | 251 kts | 278° |
| 2026-04-27 10:22 | 52.10185 | 4.95852 | 4893 ft | 261 kts | 278° |
| 2026-04-27 10:22 | 52.10404 | 4.92932 | 4585 ft | 260 kts | 278° |
| 2026-04-27 10:22 | 52.10621 | 4.90002 | 4283 ft | 262 kts | 279° |
| 2026-04-27 10:23 | 52.10812 | 4.87083 | 3959 ft | 260 kts | 275° |
| 2026-04-27 10:23 | 52.10906 | 4.84149 | 3646 ft | 260 kts | 274° |
| 2026-04-27 10:23 | 52.11059 | 4.81300 | 3487 ft | 245 kts | 287° |
| 2026-04-27 10:23 | 52.11913 | 4.79048 | 3367 ft | 227 kts | 315° |
| 2026-04-27 10:24 | 52.12996 | 4.77288 | 3236 ft | 212 kts | 323° |
| 2026-04-27 10:24 | 52.14292 | 4.76421 | 3000 ft | 200 kts | 358° |
| 2026-04-27 10:24 | 52.15644 | 4.76506 | 2746 ft | 193 kts | 4° |
| 2026-04-27 10:24 | 52.16989 | 4.76619 | 2452 ft | 192 kts | 4° |
| 2026-04-27 10:25 | 52.18326 | 4.76741 | 2179 ft | 193 kts | 4° |
| 2026-04-27 10:25 | 52.19668 | 4.76868 | 1889 ft | 192 kts | 5° |
| 2026-04-27 10:25 | 52.20952 | 4.76973 | 1656 ft | 181 kts | 4° |
| 2026-04-27 10:25 | 52.22163 | 4.77102 | 1372 ft | 171 kts | 5° |
| 2026-04-27 10:26 | 52.23303 | 4.77202 | 1179 ft | 154 kts | 5° |
| 2026-04-27 10:26 | 52.24338 | 4.77298 | 980 ft | 143 kts | 5° |
| 2026-04-27 10:26 | 52.25304 | 4.77383 | 774 ft | 140 kts | 5° |
| 2026-04-27 10:26 | 52.26290 | 4.77481 | 620 ft | 145 kts | 5° |
| 2026-04-27 10:27 | 52.27291 | 4.77569 | 392 ft | 144 kts | 4° |
| 2026-04-27 10:27 | 52.28277 | 4.77657 | 213 ft | 140 kts | 5° |
| 2026-04-27 10:27 | 52.29256 | 4.77747 | 31 ft | 142 kts | 5° |
| 2026-04-27 10:27 | 52.30175 | 4.77834 | 4 ft | 115 kts | 4° |
| 2026-04-27 10:28 | 52.30760 | 4.77885 | 1 ft | 50 kts | 359° |
| 2026-04-27 10:28 | 52.31018 | 4.77755 | 3 ft | 34 kts | 333° |
| 2026-04-27 10:28 | 52.31164 | 4.77645 | 4 ft | 14 kts | 349° |
| 2026-04-27 10:28 | 52.31262 | 4.77642 | 4 ft | 14 kts | 1° |
| 2026-04-27 10:29 | 52.31360 | 4.77652 | 4 ft | 14 kts | 3° |
| 2026-04-27 10:29 | 52.31455 | 4.77628 | 4 ft | 14 kts | 338° |
| 2026-04-27 10:29 | 52.31530 | 4.77525 | 4 ft | 14 kts | 314° |
| 2026-04-27 10:29 | 52.31576 | 4.77387 | 4 ft | 14 kts | 275° |
| 2026-04-27 10:30 | 52.31573 | 4.77222 | 4 ft | 15 kts | 266° |
| 2026-04-27 10:30 | 52.31565 | 4.77001 | 4 ft | 30 kts | 266° |
| 2026-04-27 10:30 | 52.31554 | 4.76679 | 4 ft | 25 kts | 266° |
| 2026-04-27 10:30 | 52.31544 | 4.76406 | 4 ft | 24 kts | 267° |
| 2026-04-27 10:31 | 52.31535 | 4.76142 | 4 ft | 23 kts | 266° |
| 2026-04-27 10:31 | 52.31522 | 4.75962 | 4 ft | 12 kts | 243° |
| 2026-04-27 10:31 | 52.31449 | 4.75923 | 4 ft | 12 kts | 179° |
| 2026-04-27 10:31 | 52.31364 | 4.75930 | 4 ft | 12 kts | 176° |
| 2026-04-27 10:32 | 52.31296 | 4.75950 | 4 ft | 9 kts | 139° |
| 2026-04-27 10:32 | 52.31275 | 4.76006 | 4 ft | 4 kts | 109° |
| 2026-04-27 10:32 | 52.31267 | 4.76043 | 4 ft | 1 kts | 109° |
| 2026-04-27 10:32 | 52.31264 | 4.76054 | 4 ft | 1 kts | 109° |
| 2026-04-27 10:33 | 52.31264 | 4.76055 | 4 ft | 0 kts | 109° |